sensor_id;sensor_type;location;lat;lon;timestamp;P1;durP1;ratioP1;P2;durP2;ratioP2
76113;SDS011;64845;53.086;5.834;2022-12-13T00:01:14;41.40;;;21.52;;
76113;SDS011;64845;53.086;5.834;2022-12-13T00:03:41;40.25;;;20.38;;
76113;SDS011;64845;53.086;5.834;2022-12-13T00:06:06;34.55;;;17.85;;
76113;SDS011;64845;53.086;5.834;2022-12-13T00:08:33;39.05;;;18.08;;
76113;SDS011;64845;53.086;5.834;2022-12-13T00:10:59;33.25;;;16.27;;
76113;SDS011;64845;53.086;5.834;2022-12-13T00:13:26;32.67;;;17.05;;
76113;SDS011;64845;53.086;5.834;2022-12-13T00:15:59;33.88;;;16.80;;
76113;SDS011;64845;53.086;5.834;2022-12-13T00:18:26;35.08;;;17.00;;
76113;SDS011;64845;53.086;5.834;2022-12-13T00:20:52;37.03;;;16.13;;
76113;SDS011;64845;53.086;5.834;2022-12-13T00:23:18;34.25;;;15.95;;
76113;SDS011;64845;53.086;5.834;2022-12-13T00:25:43;34.22;;;16.25;;
76113;SDS011;64845;53.086;5.834;2022-12-13T00:28:09;31.95;;;15.77;;
76113;SDS011;64845;53.086;5.834;2022-12-13T00:30:35;34.58;;;16.70;;
76113;SDS011;64845;53.086;5.834;2022-12-13T00:33:01;42.35;;;16.83;;
76113;SDS011;64845;53.086;5.834;2022-12-13T00:35:26;35.53;;;16.08;;
76113;SDS011;64845;53.086;5.834;2022-12-13T00:37:51;32.60;;;15.65;;
76113;SDS011;64845;53.086;5.834;2022-12-13T00:40:17;30.92;;;16.40;;
76113;SDS011;64845;53.086;5.834;2022-12-13T00:42:42;30.88;;;15.13;;
76113;SDS011;64845;53.086;5.834;2022-12-13T00:45:08;33.42;;;16.00;;
76113;SDS011;64845;53.086;5.834;2022-12-13T00:47:34;34.53;;;15.88;;
76113;SDS011;64845;53.086;5.834;2022-12-13T00:50:00;30.52;;;15.27;;
76113;SDS011;64845;53.086;5.834;2022-12-13T00:52:27;34.83;;;17.02;;
76113;SDS011;64845;53.086;5.834;2022-12-13T00:54:53;33.75;;;14.52;;
76113;SDS011;64845;53.086;5.834;2022-12-13T00:57:18;32.33;;;14.98;;
76113;SDS011;64845;53.086;5.834;2022-12-13T00:59:43;34.03;;;15.52;;
76113;SDS011;64845;53.086;5.834;2022-12-13T01:02:09;27.83;;;13.63;;
76113;SDS011;64845;53.086;5.834;2022-12-13T01:04:34;30.95;;;14.30;;
76113;SDS011;64845;53.086;5.834;2022-12-13T01:06:59;28.83;;;15.70;;
76113;SDS011;64845;53.086;5.834;2022-12-13T01:09:25;36.10;;;15.13;;
76113;SDS011;64845;53.086;5.834;2022-12-13T01:11:57;31.15;;;14.18;;
76113;SDS011;64845;53.086;5.834;2022-12-13T01:14:27;39.20;;;15.27;;
76113;SDS011;64845;53.086;5.834;2022-12-13T01:16:53;25.80;;;14.07;;
76113;SDS011;64845;53.086;5.834;2022-12-13T01:19:20;30.75;;;14.82;;
76113;SDS011;64845;53.086;5.834;2022-12-13T01:21:52;25.60;;;13.80;;
76113;SDS011;64845;53.086;5.834;2022-12-13T01:24:22;34.13;;;14.68;;
76113;SDS011;64845;53.086;5.834;2022-12-13T01:26:50;24.42;;;14.35;;
76113;SDS011;64845;53.086;5.834;2022-12-13T01:29:16;28.40;;;14.77;;
76113;SDS011;64845;53.086;5.834;2022-12-13T01:31:43;30.45;;;14.32;;
76113;SDS011;64845;53.086;5.834;2022-12-13T01:34:12;36.75;;;15.05;;
76113;SDS011;64845;53.086;5.834;2022-12-13T01:36:41;27.88;;;14.07;;
76113;SDS011;64845;53.086;5.834;2022-12-13T01:39:08;31.75;;;14.25;;
76113;SDS011;64845;53.086;5.834;2022-12-13T01:41:34;30.90;;;14.95;;
76113;SDS011;64845;53.086;5.834;2022-12-13T01:44:01;27.33;;;13.70;;
76113;SDS011;64845;53.086;5.834;2022-12-13T01:46:29;28.92;;;14.63;;
76113;SDS011;64845;53.086;5.834;2022-12-13T01:48:58;29.73;;;14.63;;
76113;SDS011;64845;53.086;5.834;2022-12-13T01:51:34;31.15;;;14.20;;
76113;SDS011;64845;53.086;5.834;2022-12-13T01:54:04;32.03;;;15.48;;
76113;SDS011;64845;53.086;5.834;2022-12-13T01:56:34;33.70;;;14.25;;
76113;SDS011;64845;53.086;5.834;2022-12-13T01:59:03;31.02;;;14.35;;
76113;SDS011;64845;53.086;5.834;2022-12-13T02:01:32;28.42;;;14.13;;
76113;SDS011;64845;53.086;5.834;2022-12-13T02:03:58;32.45;;;14.57;;
76113;SDS011;64845;53.086;5.834;2022-12-13T02:06:33;28.05;;;14.00;;
76113;SDS011;64845;53.086;5.834;2022-12-13T02:09:02;27.85;;;13.05;;
76113;SDS011;64845;53.086;5.834;2022-12-13T02:11:29;24.63;;;12.98;;
76113;SDS011;64845;53.086;5.834;2022-12-13T02:13:54;28.92;;;14.15;;
76113;SDS011;64845;53.086;5.834;2022-12-13T02:28:03;31.27;;;14.75;;
76113;SDS011;64845;53.086;5.834;2022-12-13T02:30:51;29.02;;;13.27;;
76113;SDS011;64845;53.086;5.834;2022-12-13T02:38:35;30.20;;;13.63;;
76113;SDS011;64845;53.086;5.834;2022-12-13T02:46:15;32.38;;;14.38;;
76113;SDS011;64845;53.086;5.834;2022-12-13T02:48:44;30.80;;;14.13;;
76113;SDS011;64845;53.086;5.834;2022-12-13T02:51:12;30.75;;;14.00;;
76113;SDS011;64845;53.086;5.834;2022-12-13T02:53:39;31.73;;;14.10;;
76113;SDS011;64845;53.086;5.834;2022-12-13T02:56:06;27.77;;;13.43;;
76113;SDS011;64845;53.086;5.834;2022-12-13T02:58:32;26.83;;;13.10;;
76113;SDS011;64845;53.086;5.834;2022-12-13T03:06:38;27.50;;;13.55;;
76113;SDS011;64845;53.086;5.834;2022-12-13T03:09:28;25.50;;;12.85;;
76113;SDS011;64845;53.086;5.834;2022-12-13T03:18:08;29.27;;;13.40;;
76113;SDS011;64845;53.086;5.834;2022-12-13T03:20:45;31.33;;;13.27;;
76113;SDS011;64845;53.086;5.834;2022-12-13T03:23:12;31.33;;;13.43;;
76113;SDS011;64845;53.086;5.834;2022-12-13T03:25:38;31.63;;;13.68;;
76113;SDS011;64845;53.086;5.834;2022-12-13T03:28:04;31.95;;;14.07;;
76113;SDS011;64845;53.086;5.834;2022-12-13T03:30:30;25.95;;;13.07;;
76113;SDS011;64845;53.086;5.834;2022-12-13T03:32:56;29.58;;;13.40;;
76113;SDS011;64845;53.086;5.834;2022-12-13T03:35:21;25.60;;;13.25;;
76113;SDS011;64845;53.086;5.834;2022-12-13T03:37:47;32.38;;;13.13;;
76113;SDS011;64845;53.086;5.834;2022-12-13T03:40:12;26.85;;;12.98;;
76113;SDS011;64845;53.086;5.834;2022-12-13T03:42:38;24.10;;;12.70;;
76113;SDS011;64845;53.086;5.834;2022-12-13T03:45:03;30.90;;;13.43;;
76113;SDS011;64845;53.086;5.834;2022-12-13T03:47:29;24.40;;;11.95;;
76113;SDS011;64845;53.086;5.834;2022-12-13T03:49:55;28.92;;;12.93;;
76113;SDS011;64845;53.086;5.834;2022-12-13T03:52:20;25.25;;;12.63;;
76113;SDS011;64845;53.086;5.834;2022-12-13T03:54:45;24.95;;;12.70;;
76113;SDS011;64845;53.086;5.834;2022-12-13T03:57:11;25.77;;;12.48;;
76113;SDS011;64845;53.086;5.834;2022-12-13T03:59:39;25.05;;;11.75;;
76113;SDS011;64845;53.086;5.834;2022-12-13T04:02:05;27.75;;;12.65;;
76113;SDS011;64845;53.086;5.834;2022-12-13T04:04:30;27.95;;;12.05;;
76113;SDS011;64845;53.086;5.834;2022-12-13T04:06:55;25.52;;;11.98;;
76113;SDS011;64845;53.086;5.834;2022-12-13T04:09:21;25.00;;;12.27;;
76113;SDS011;64845;53.086;5.834;2022-12-13T04:11:46;26.75;;;13.18;;
76113;SDS011;64845;53.086;5.834;2022-12-13T04:14:30;23.67;;;11.98;;
76113;SDS011;64845;53.086;5.834;2022-12-13T04:16:56;26.50;;;12.23;;
76113;SDS011;64845;53.086;5.834;2022-12-13T04:19:21;25.38;;;11.82;;
76113;SDS011;64845;53.086;5.834;2022-12-13T04:21:46;27.85;;;12.95;;
76113;SDS011;64845;53.086;5.834;2022-12-13T04:24:12;24.88;;;11.88;;
76113;SDS011;64845;53.086;5.834;2022-12-13T04:26:37;24.55;;;11.45;;
76113;SDS011;64845;53.086;5.834;2022-12-13T04:29:02;25.33;;;12.43;;
76113;SDS011;64845;53.086;5.834;2022-12-13T04:31:28;24.70;;;11.80;;
76113;SDS011;64845;53.086;5.834;2022-12-13T04:33:53;23.55;;;11.98;;
76113;SDS011;64845;53.086;5.834;2022-12-13T04:36:18;22.92;;;11.88;;
76113;SDS011;64845;53.086;5.834;2022-12-13T04:38:49;29.00;;;12.35;;
76113;SDS011;64845;53.086;5.834;2022-12-13T04:41:16;21.77;;;10.68;;
76113;SDS011;64845;53.086;5.834;2022-12-13T04:43:42;20.90;;;11.30;;
76113;SDS011;64845;53.086;5.834;2022-12-13T04:46:08;24.20;;;11.65;;
76113;SDS011;64845;53.086;5.834;2022-12-13T04:48:34;21.88;;;11.13;;
76113;SDS011;64845;53.086;5.834;2022-12-13T04:51:00;25.42;;;12.50;;
76113;SDS011;64845;53.086;5.834;2022-12-13T04:53:27;25.73;;;11.32;;
76113;SDS011;64845;53.086;5.834;2022-12-13T04:55:53;24.63;;;12.25;;
76113;SDS011;64845;53.086;5.834;2022-12-13T04:58:18;26.13;;;12.00;;
76113;SDS011;64845;53.086;5.834;2022-12-13T05:00:44;27.48;;;11.70;;
76113;SDS011;64845;53.086;5.834;2022-12-13T05:03:09;22.25;;;11.50;;
76113;SDS011;64845;53.086;5.834;2022-12-13T05:05:37;20.50;;;11.35;;
76113;SDS011;64845;53.086;5.834;2022-12-13T05:08:04;19.75;;;11.63;;
76113;SDS011;64845;53.086;5.834;2022-12-13T05:10:30;27.88;;;11.65;;
76113;SDS011;64845;53.086;5.834;2022-12-13T05:12:57;23.20;;;11.52;;
76113;SDS011;64845;53.086;5.834;2022-12-13T05:15:22;26.27;;;12.77;;
76113;SDS011;64845;53.086;5.834;2022-12-13T05:17:48;24.38;;;12.52;;
76113;SDS011;64845;53.086;5.834;2022-12-13T05:20:13;24.48;;;12.27;;
76113;SDS011;64845;53.086;5.834;2022-12-13T05:22:39;23.15;;;11.90;;
76113;SDS011;64845;53.086;5.834;2022-12-13T05:25:05;25.40;;;12.90;;
76113;SDS011;64845;53.086;5.834;2022-12-13T05:27:30;34.20;;;13.43;;
76113;SDS011;64845;53.086;5.834;2022-12-13T05:29:56;27.50;;;12.63;;
76113;SDS011;64845;53.086;5.834;2022-12-13T05:32:22;21.15;;;11.70;;
76113;SDS011;64845;53.086;5.834;2022-12-13T05:34:47;23.88;;;11.25;;
76113;SDS011;64845;53.086;5.834;2022-12-13T05:37:12;20.17;;;10.57;;
76113;SDS011;64845;53.086;5.834;2022-12-13T05:39:38;26.67;;;10.73;;
76113;SDS011;64845;53.086;5.834;2022-12-13T05:42:03;25.85;;;12.52;;
76113;SDS011;64845;53.086;5.834;2022-12-13T05:44:30;22.85;;;11.82;;
76113;SDS011;64845;53.086;5.834;2022-12-13T05:46:56;25.98;;;12.02;;
76113;SDS011;64845;53.086;5.834;2022-12-13T05:49:21;26.05;;;11.95;;
76113;SDS011;64845;53.086;5.834;2022-12-13T05:51:47;23.38;;;12.38;;
76113;SDS011;64845;53.086;5.834;2022-12-13T05:54:12;25.48;;;12.88;;
76113;SDS011;64845;53.086;5.834;2022-12-13T05:56:37;26.98;;;12.50;;
76113;SDS011;64845;53.086;5.834;2022-12-13T05:59:03;29.27;;;13.68;;
76113;SDS011;64845;53.086;5.834;2022-12-13T06:01:28;24.73;;;13.50;;
76113;SDS011;64845;53.086;5.834;2022-12-13T06:03:53;28.45;;;13.60;;
76113;SDS011;64845;53.086;5.834;2022-12-13T06:06:19;33.15;;;13.05;;
76113;SDS011;64845;53.086;5.834;2022-12-13T06:08:45;23.15;;;12.57;;
76113;SDS011;64845;53.086;5.834;2022-12-13T06:11:10;25.45;;;12.73;;
76113;SDS011;64845;53.086;5.834;2022-12-13T06:13:36;27.95;;;13.13;;
76113;SDS011;64845;53.086;5.834;2022-12-13T06:16:02;27.25;;;11.93;;
76113;SDS011;64845;53.086;5.834;2022-12-13T06:18:30;24.92;;;12.77;;
76113;SDS011;64845;53.086;5.834;2022-12-13T06:20:57;33.03;;;12.95;;
76113;SDS011;64845;53.086;5.834;2022-12-13T06:23:24;23.08;;;12.52;;
76113;SDS011;64845;53.086;5.834;2022-12-13T06:25:49;26.17;;;12.48;;
76113;SDS011;64845;53.086;5.834;2022-12-13T06:28:14;24.00;;;12.10;;
76113;SDS011;64845;53.086;5.834;2022-12-13T06:30:40;31.40;;;12.90;;
76113;SDS011;64845;53.086;5.834;2022-12-13T06:33:06;23.88;;;12.88;;
76113;SDS011;64845;53.086;5.834;2022-12-13T06:35:33;26.00;;;13.02;;
76113;SDS011;64845;53.086;5.834;2022-12-13T06:37:59;35.30;;;13.98;;
76113;SDS011;64845;53.086;5.834;2022-12-13T06:40:24;29.60;;;14.07;;
76113;SDS011;64845;53.086;5.834;2022-12-13T06:42:49;28.40;;;13.45;;
76113;SDS011;64845;53.086;5.834;2022-12-13T06:45:15;26.27;;;13.25;;
76113;SDS011;64845;53.086;5.834;2022-12-13T06:47:40;29.20;;;14.00;;
76113;SDS011;64845;53.086;5.834;2022-12-13T06:50:06;26.20;;;13.38;;
76113;SDS011;64845;53.086;5.834;2022-12-13T06:52:32;27.38;;;13.23;;
76113;SDS011;64845;53.086;5.834;2022-12-13T06:54:57;26.58;;;13.05;;
76113;SDS011;64845;53.086;5.834;2022-12-13T06:57:23;26.58;;;13.38;;
76113;SDS011;64845;53.086;5.834;2022-12-13T06:59:48;24.10;;;13.27;;
76113;SDS011;64845;53.086;5.834;2022-12-13T07:02:13;26.05;;;12.95;;
76113;SDS011;64845;53.086;5.834;2022-12-13T07:04:39;23.23;;;12.93;;
76113;SDS011;64845;53.086;5.834;2022-12-13T07:07:04;23.42;;;11.93;;
76113;SDS011;64845;53.086;5.834;2022-12-13T07:09:30;24.08;;;12.43;;
76113;SDS011;64845;53.086;5.834;2022-12-13T07:11:56;28.83;;;11.82;;
76113;SDS011;64845;53.086;5.834;2022-12-13T07:14:22;22.58;;;12.27;;
76113;SDS011;64845;53.086;5.834;2022-12-13T07:16:47;24.35;;;13.00;;
76113;SDS011;64845;53.086;5.834;2022-12-13T07:19:13;25.77;;;12.55;;
76113;SDS011;64845;53.086;5.834;2022-12-13T07:21:38;27.17;;;12.75;;
76113;SDS011;64845;53.086;5.834;2022-12-13T07:24:04;25.70;;;12.02;;
76113;SDS011;64845;53.086;5.834;2022-12-13T07:26:30;28.73;;;13.80;;
76113;SDS011;64845;53.086;5.834;2022-12-13T07:28:56;23.67;;;13.15;;
76113;SDS011;64845;53.086;5.834;2022-12-13T07:31:21;26.55;;;12.07;;
76113;SDS011;64845;53.086;5.834;2022-12-13T07:33:48;23.20;;;12.13;;
76113;SDS011;64845;53.086;5.834;2022-12-13T07:36:14;26.70;;;13.30;;
76113;SDS011;64845;53.086;5.834;2022-12-13T07:38:42;27.85;;;13.45;;
76113;SDS011;64845;53.086;5.834;2022-12-13T07:41:08;26.55;;;12.93;;
76113;SDS011;64845;53.086;5.834;2022-12-13T07:43:33;25.63;;;12.80;;
76113;SDS011;64845;53.086;5.834;2022-12-13T07:46:03;24.15;;;13.27;;
76113;SDS011;64845;53.086;5.834;2022-12-13T07:48:30;29.95;;;12.98;;
76113;SDS011;64845;53.086;5.834;2022-12-13T07:51:01;25.65;;;13.20;;
76113;SDS011;64845;53.086;5.834;2022-12-13T07:53:27;28.38;;;13.50;;
76113;SDS011;64845;53.086;5.834;2022-12-13T07:55:53;27.23;;;13.40;;
76113;SDS011;64845;53.086;5.834;2022-12-13T07:58:19;31.90;;;13.80;;
76113;SDS011;64845;53.086;5.834;2022-12-13T08:00:44;31.30;;;14.45;;
76113;SDS011;64845;53.086;5.834;2022-12-13T08:03:10;35.88;;;15.40;;
76113;SDS011;64845;53.086;5.834;2022-12-13T08:05:36;31.95;;;15.23;;
76113;SDS011;64845;53.086;5.834;2022-12-13T08:08:03;28.15;;;14.38;;
76113;SDS011;64845;53.086;5.834;2022-12-13T08:10:30;27.50;;;14.98;;
76113;SDS011;64845;53.086;5.834;2022-12-13T08:12:56;32.20;;;15.20;;
76113;SDS011;64845;53.086;5.834;2022-12-13T08:15:22;33.55;;;15.02;;
76113;SDS011;64845;53.086;5.834;2022-12-13T08:17:49;31.23;;;14.45;;
76113;SDS011;64845;53.086;5.834;2022-12-13T08:20:14;31.23;;;14.43;;
76113;SDS011;64845;53.086;5.834;2022-12-13T08:22:41;32.53;;;14.80;;
76113;SDS011;64845;53.086;5.834;2022-12-13T08:25:07;30.58;;;14.55;;
76113;SDS011;64845;53.086;5.834;2022-12-13T08:27:33;35.53;;;14.65;;
76113;SDS011;64845;53.086;5.834;2022-12-13T08:29:58;28.38;;;14.20;;
76113;SDS011;64845;53.086;5.834;2022-12-13T08:32:23;33.05;;;14.27;;
76113;SDS011;64845;53.086;5.834;2022-12-13T08:34:49;29.25;;;14.45;;
76113;SDS011;64845;53.086;5.834;2022-12-13T08:37:14;34.05;;;15.15;;
76113;SDS011;64845;53.086;5.834;2022-12-13T08:39:40;29.05;;;14.65;;
76113;SDS011;64845;53.086;5.834;2022-12-13T08:42:07;33.63;;;14.65;;
76113;SDS011;64845;53.086;5.834;2022-12-13T08:44:37;30.45;;;15.18;;
76113;SDS011;64845;53.086;5.834;2022-12-13T08:47:02;37.40;;;16.08;;
76113;SDS011;64845;53.086;5.834;2022-12-13T08:49:28;32.25;;;16.65;;
76113;SDS011;64845;53.086;5.834;2022-12-13T08:51:53;30.08;;;15.55;;
76113;SDS011;64845;53.086;5.834;2022-12-13T08:54:18;34.13;;;15.25;;
76113;SDS011;64845;53.086;5.834;2022-12-13T08:56:44;29.77;;;14.60;;
76113;SDS011;64845;53.086;5.834;2022-12-13T08:59:09;33.05;;;16.00;;
76113;SDS011;64845;53.086;5.834;2022-12-13T09:01:35;36.45;;;14.90;;
76113;SDS011;64845;53.086;5.834;2022-12-13T09:04:00;27.27;;;14.25;;
76113;SDS011;64845;53.086;5.834;2022-12-13T09:06:25;35.83;;;17.85;;
76113;SDS011;64845;53.086;5.834;2022-12-13T09:08:51;40.65;;;17.23;;
76113;SDS011;64845;53.086;5.834;2022-12-13T09:11:18;31.63;;;16.17;;
76113;SDS011;64845;53.086;5.834;2022-12-13T09:13:43;30.30;;;15.27;;
76113;SDS011;64845;53.086;5.834;2022-12-13T09:16:14;36.70;;;17.48;;
76113;SDS011;64845;53.086;5.834;2022-12-13T09:18:42;33.33;;;16.65;;
76113;SDS011;64845;53.086;5.834;2022-12-13T09:21:09;37.13;;;17.77;;
76113;SDS011;64845;53.086;5.834;2022-12-13T09:23:36;34.38;;;15.77;;
76113;SDS011;64845;53.086;5.834;2022-12-13T09:26:02;26.25;;;14.40;;
76113;SDS011;64845;53.086;5.834;2022-12-13T09:28:28;36.83;;;16.17;;
76113;SDS011;64845;53.086;5.834;2022-12-13T09:30:54;29.17;;;15.27;;
76113;SDS011;64845;53.086;5.834;2022-12-13T09:33:20;30.05;;;16.55;;
76113;SDS011;64845;53.086;5.834;2022-12-13T09:35:46;32.47;;;15.75;;
76113;SDS011;64845;53.086;5.834;2022-12-13T09:38:12;29.25;;;16.25;;
76113;SDS011;64845;53.086;5.834;2022-12-13T09:40:37;32.42;;;16.60;;
76113;SDS011;64845;53.086;5.834;2022-12-13T09:43:04;34.75;;;16.75;;
76113;SDS011;64845;53.086;5.834;2022-12-13T09:45:31;35.83;;;16.70;;
76113;SDS011;64845;53.086;5.834;2022-12-13T09:47:58;34.95;;;15.98;;
76113;SDS011;64845;53.086;5.834;2022-12-13T09:50:32;30.27;;;15.68;;
76113;SDS011;64845;53.086;5.834;2022-12-13T09:53:00;33.40;;;16.50;;
76113;SDS011;64845;53.086;5.834;2022-12-13T09:55:47;29.92;;;16.00;;
76113;SDS011;64845;53.086;5.834;2022-12-13T09:58:20;37.55;;;17.42;;
76113;SDS011;64845;53.086;5.834;2022-12-13T10:00:52;34.55;;;17.35;;
76113;SDS011;64845;53.086;5.834;2022-12-13T10:03:20;30.38;;;15.77;;
76113;SDS011;64845;53.086;5.834;2022-12-13T10:05:59;32.55;;;17.02;;
76113;SDS011;64845;53.086;5.834;2022-12-13T10:08:39;31.23;;;15.20;;
76113;SDS011;64845;53.086;5.834;2022-12-13T10:11:12;42.03;;;17.02;;
76113;SDS011;64845;53.086;5.834;2022-12-13T10:13:46;35.08;;;17.52;;
76113;SDS011;64845;53.086;5.834;2022-12-13T10:16:19;35.83;;;17.38;;
76113;SDS011;64845;53.086;5.834;2022-12-13T10:18:55;35.67;;;17.23;;
76113;SDS011;64845;53.086;5.834;2022-12-13T10:21:23;32.50;;;16.92;;
76113;SDS011;64845;53.086;5.834;2022-12-13T10:24:03;36.83;;;17.27;;
76113;SDS011;64845;53.086;5.834;2022-12-13T10:26:38;37.67;;;16.88;;
76113;SDS011;64845;53.086;5.834;2022-12-13T10:29:03;34.13;;;17.98;;
76113;SDS011;64845;53.086;5.834;2022-12-13T10:31:36;31.73;;;17.08;;
76113;SDS011;64845;53.086;5.834;2022-12-13T10:34:27;35.83;;;18.40;;
76113;SDS011;64845;53.086;5.834;2022-12-13T10:39:43;32.47;;;16.02;;
76113;SDS011;64845;53.086;5.834;2022-12-13T10:42:13;35.28;;;16.20;;
76113;SDS011;64845;53.086;5.834;2022-12-13T10:44:42;36.22;;;17.75;;
76113;SDS011;64845;53.086;5.834;2022-12-13T10:49:38;38.67;;;19.00;;
76113;SDS011;64845;53.086;5.834;2022-12-13T10:52:22;40.17;;;19.80;;
76113;SDS011;64845;53.086;5.834;2022-12-13T10:54:48;37.92;;;18.35;;
76113;SDS011;64845;53.086;5.834;2022-12-13T10:57:15;35.42;;;17.83;;
76113;SDS011;64845;53.086;5.834;2022-12-13T10:59:41;40.05;;;18.05;;
76113;SDS011;64845;53.086;5.834;2022-12-13T11:04:52;37.15;;;18.77;;
76113;SDS011;64845;53.086;5.834;2022-12-13T11:07:22;33.22;;;18.17;;
76113;SDS011;64845;53.086;5.834;2022-12-13T11:09:55;32.08;;;18.00;;
76113;SDS011;64845;53.086;5.834;2022-12-13T11:12:22;40.13;;;19.20;;
76113;SDS011;64845;53.086;5.834;2022-12-13T11:14:52;38.28;;;19.20;;
76113;SDS011;64845;53.086;5.834;2022-12-13T11:17:21;37.25;;;18.63;;
76113;SDS011;64845;53.086;5.834;2022-12-13T11:19:56;37.95;;;18.98;;
76113;SDS011;64845;53.086;5.834;2022-12-13T11:22:29;37.63;;;18.98;;
76113;SDS011;64845;53.086;5.834;2022-12-13T11:30:10;35.80;;;19.77;;
76113;SDS011;64845;53.086;5.834;2022-12-13T11:38:03;37.28;;;19.88;;
76113;SDS011;64845;53.086;5.834;2022-12-13T11:40:41;38.65;;;19.52;;
76113;SDS011;64845;53.086;5.834;2022-12-13T11:43:13;35.97;;;19.20;;
76113;SDS011;64845;53.086;5.834;2022-12-13T11:45:42;38.53;;;19.90;;
76113;SDS011;64845;53.086;5.834;2022-12-13T11:51:04;36.92;;;19.45;;
76113;SDS011;64845;53.086;5.834;2022-12-13T11:56:39;40.13;;;21.08;;
76113;SDS011;64845;53.086;5.834;2022-12-13T12:01:58;38.42;;;20.42;;
76113;SDS011;64845;53.086;5.834;2022-12-13T12:04:54;37.78;;;20.60;;
76113;SDS011;64845;53.086;5.834;2022-12-13T12:10:22;38.42;;;19.83;;
76113;SDS011;64845;53.086;5.834;2022-12-13T12:16:00;34.03;;;17.02;;
76113;SDS011;64845;53.086;5.834;2022-12-13T12:18:55;34.47;;;18.75;;
76113;SDS011;64845;53.086;5.834;2022-12-13T12:21:34;35.83;;;18.25;;
76113;SDS011;64845;53.086;5.834;2022-12-13T12:24:14;39.65;;;20.13;;
76113;SDS011;64845;53.086;5.834;2022-12-13T12:38:13;32.45;;;16.92;;
76113;SDS011;64845;53.086;5.834;2022-12-13T12:46:45;27.50;;;15.30;;
76113;SDS011;64845;53.086;5.834;2022-12-13T12:55:45;31.05;;;16.65;;
76113;SDS011;64845;53.086;5.834;2022-12-13T13:01:52;28.30;;;16.17;;
76113;SDS011;64845;53.086;5.834;2022-12-13T13:04:07;31.77;;;16.80;;
76113;SDS011;64845;53.086;5.834;2022-12-13T13:06:42;30.55;;;16.73;;
76113;SDS011;64845;53.086;5.834;2022-12-13T13:09:12;29.70;;;17.10;;
76113;SDS011;64845;53.086;5.834;2022-12-13T13:11:42;30.45;;;16.30;;
76113;SDS011;64845;53.086;5.834;2022-12-13T13:14:29;30.65;;;15.48;;
76113;SDS011;64845;53.086;5.834;2022-12-13T13:22:39;30.10;;;17.13;;
76113;SDS011;64845;53.086;5.834;2022-12-13T13:27:44;29.67;;;15.65;;
76113;SDS011;64845;53.086;5.834;2022-12-13T13:32:39;31.02;;;16.50;;
76113;SDS011;64845;53.086;5.834;2022-12-13T13:37:52;27.58;;;14.82;;
76113;SDS011;64845;53.086;5.834;2022-12-13T13:40:25;28.73;;;16.35;;
76113;SDS011;64845;53.086;5.834;2022-12-13T14:05:37;27.50;;;15.32;;
76113;SDS011;64845;53.086;5.834;2022-12-13T14:14:09;30.40;;;17.20;;
76113;SDS011;64845;53.086;5.834;2022-12-13T14:20:30;30.77;;;15.90;;
76113;SDS011;64845;53.086;5.834;2022-12-13T14:29:00;28.50;;;14.93;;
76113;SDS011;64845;53.086;5.834;2022-12-13T14:33:55;32.50;;;16.13;;
76113;SDS011;64845;53.086;5.834;2022-12-13T14:36:28;31.10;;;16.35;;
76113;SDS011;64845;53.086;5.834;2022-12-13T14:39:18;29.13;;;15.90;;
76113;SDS011;64845;53.086;5.834;2022-12-13T14:41:45;29.75;;;15.65;;
76113;SDS011;64845;53.086;5.834;2022-12-13T14:44:22;26.38;;;16.35;;
76113;SDS011;64845;53.086;5.834;2022-12-13T14:46:55;24.30;;;15.52;;
76113;SDS011;64845;53.086;5.834;2022-12-13T14:49:24;30.80;;;15.80;;
76113;SDS011;64845;53.086;5.834;2022-12-13T14:52:04;31.52;;;16.83;;
76113;SDS011;64845;53.086;5.834;2022-12-13T14:54:40;29.67;;;16.45;;
76113;SDS011;64845;53.086;5.834;2022-12-13T14:57:15;32.38;;;17.50;;
76113;SDS011;64845;53.086;5.834;2022-12-13T14:59:48;34.15;;;17.45;;
76113;SDS011;64845;53.086;5.834;2022-12-13T15:02:21;34.42;;;18.13;;
76113;SDS011;64845;53.086;5.834;2022-12-13T15:04:51;32.42;;;17.75;;
76113;SDS011;64845;53.086;5.834;2022-12-13T15:07:29;31.05;;;17.95;;
76113;SDS011;64845;53.086;5.834;2022-12-13T15:09:58;35.55;;;17.23;;
76113;SDS011;64845;53.086;5.834;2022-12-13T15:12:26;32.25;;;17.08;;
76113;SDS011;64845;53.086;5.834;2022-12-13T15:15:03;31.27;;;17.80;;
76113;SDS011;64845;53.086;5.834;2022-12-13T15:17:35;32.55;;;17.27;;
76113;SDS011;64845;53.086;5.834;2022-12-13T15:22:59;33.33;;;17.67;;
76113;SDS011;64845;53.086;5.834;2022-12-13T15:25:28;32.55;;;18.10;;
76113;SDS011;64845;53.086;5.834;2022-12-13T15:27:54;29.15;;;17.52;;
76113;SDS011;64845;53.086;5.834;2022-12-13T15:30:20;34.58;;;16.75;;
76113;SDS011;64845;53.086;5.834;2022-12-13T15:33:05;33.38;;;17.67;;
76113;SDS011;64845;53.086;5.834;2022-12-13T15:35:32;35.67;;;18.83;;
76113;SDS011;64845;53.086;5.834;2022-12-13T15:38:01;33.10;;;17.70;;
76113;SDS011;64845;53.086;5.834;2022-12-13T15:40:27;33.25;;;18.52;;
76113;SDS011;64845;53.086;5.834;2022-12-13T15:42:53;35.97;;;19.52;;
76113;SDS011;64845;53.086;5.834;2022-12-13T15:45:20;34.53;;;19.88;;
76113;SDS011;64845;53.086;5.834;2022-12-13T15:47:48;35.10;;;18.45;;
76113;SDS011;64845;53.086;5.834;2022-12-13T15:50:28;37.92;;;18.33;;
76113;SDS011;64845;53.086;5.834;2022-12-13T15:53:01;33.65;;;17.30;;
76113;SDS011;64845;53.086;5.834;2022-12-13T15:55:41;32.05;;;17.73;;
76113;SDS011;64845;53.086;5.834;2022-12-13T15:58:20;36.60;;;17.63;;
76113;SDS011;64845;53.086;5.834;2022-12-13T16:01:01;35.55;;;18.52;;
76113;SDS011;64845;53.086;5.834;2022-12-13T16:03:32;35.03;;;18.02;;
76113;SDS011;64845;53.086;5.834;2022-12-13T16:06:06;35.03;;;18.25;;
76113;SDS011;64845;53.086;5.834;2022-12-13T16:08:34;33.13;;;18.30;;
76113;SDS011;64845;53.086;5.834;2022-12-13T16:11:03;32.27;;;17.67;;
76113;SDS011;64845;53.086;5.834;2022-12-13T16:13:31;36.20;;;18.65;;
76113;SDS011;64845;53.086;5.834;2022-12-13T16:16:17;37.25;;;18.30;;
76113;SDS011;64845;53.086;5.834;2022-12-13T16:18:55;30.27;;;16.60;;
76113;SDS011;64845;53.086;5.834;2022-12-13T16:21:22;32.47;;;16.92;;
76113;SDS011;64845;53.086;5.834;2022-12-13T16:23:49;43.80;;;22.70;;
76113;SDS011;64845;53.086;5.834;2022-12-13T16:26:22;49.45;;;23.33;;
76113;SDS011;64845;53.086;5.834;2022-12-13T16:28:50;44.05;;;22.65;;
76113;SDS011;64845;53.086;5.834;2022-12-13T16:31:17;35.85;;;18.98;;
76113;SDS011;64845;53.086;5.834;2022-12-13T16:33:47;34.92;;;19.08;;
76113;SDS011;64845;53.086;5.834;2022-12-13T16:36:13;33.83;;;18.50;;
76113;SDS011;64845;53.086;5.834;2022-12-13T16:38:38;34.92;;;18.92;;
76113;SDS011;64845;53.086;5.834;2022-12-13T16:41:03;32.28;;;18.30;;
76113;SDS011;64845;53.086;5.834;2022-12-13T16:43:31;32.40;;;18.23;;
76113;SDS011;64845;53.086;5.834;2022-12-13T16:45:58;35.50;;;18.85;;
76113;SDS011;64845;53.086;5.834;2022-12-13T16:48:27;38.45;;;19.92;;
76113;SDS011;64845;53.086;5.834;2022-12-13T16:50:52;36.15;;;19.92;;
76113;SDS011;64845;53.086;5.834;2022-12-13T16:53:18;35.30;;;18.85;;
76113;SDS011;64845;53.086;5.834;2022-12-13T16:55:43;40.22;;;21.75;;
76113;SDS011;64845;53.086;5.834;2022-12-13T16:58:14;44.55;;;21.55;;
76113;SDS011;64845;53.086;5.834;2022-12-13T17:00:41;42.85;;;22.02;;